createdAt,value
2023-01-03T00:01:36.088Z,5.35
2023-01-03T00:05:37.805Z,5.07
2023-01-03T00:09:39.646Z,6.30
2023-01-03T00:13:42.124Z,4.60
2023-01-03T00:17:43.858Z,4.82
2023-01-03T00:21:45.795Z,4.68
2023-01-03T00:25:47.540Z,4.65
2023-01-03T00:29:49.466Z,4.75
2023-01-03T00:33:51.575Z,4.32
2023-01-03T00:37:53.312Z,4.30
2023-01-03T00:41:55.953Z,4.88
2023-01-03T00:45:58.207Z,4.30
2023-01-03T00:49:59.987Z,5.18
2023-01-03T00:54:04.238Z,5.18
2023-01-03T00:58:05.998Z,4.82
2023-01-03T01:02:08.180Z,7.50
2023-01-03T01:06:15.135Z,5.80
2023-01-03T01:10:19.618Z,4.30
2023-01-03T01:14:23.991Z,4.75
2023-01-03T01:18:25.722Z,4.38
2023-01-03T01:22:27.472Z,4.28
2023-01-03T01:26:29.264Z,3.70
2023-01-03T01:30:31.001Z,4.85
2023-01-03T01:34:33.254Z,4.28
2023-01-03T01:38:35.351Z,3.85
2023-01-03T01:42:55.624Z,4.38
2023-01-03T01:46:57.423Z,5.03
2023-01-03T01:50:59.327Z,5.28
2023-01-03T01:55:04.297Z,4.90
2023-01-03T01:59:09.079Z,4.03
2023-01-03T02:03:12.337Z,6.53
2023-01-03T02:07:15.142Z,5.55
2023-01-03T02:11:25.901Z,5.28
2023-01-03T02:16:06.336Z,4.47
2023-01-03T02:20:31.432Z,4.40
2023-01-03T02:24:57.360Z,3.72
2023-01-03T02:28:59.015Z,3.90
2023-01-03T02:33:26.813Z,3.40
2023-01-03T02:41:45.417Z,2.70
2023-01-03T02:46:00.212Z,2.70
2023-01-03T02:50:08.626Z,3.05
2023-01-03T02:54:15.515Z,3.70
2023-01-03T02:58:22.905Z,3.92
2023-01-03T03:02:29.371Z,2.53
2023-01-03T03:06:41.593Z,2.58
2023-01-03T03:11:03.411Z,2.20
2023-01-03T03:15:06.212Z,2.60
2023-01-03T03:19:14.102Z,2.30
2023-01-03T03:23:38.813Z,2.20
2023-01-03T03:28:03.650Z,2.42
2023-01-03T03:32:05.647Z,3.35
2023-01-03T03:36:18.169Z,3.50
2023-01-03T03:40:41.677Z,3.70
2023-01-03T03:45:03.974Z,3.67
2023-01-03T03:49:30.334Z,3.80
2023-01-03T03:53:34.774Z,3.83
2023-01-03T03:57:44.594Z,4.15
2023-01-03T04:01:48.233Z,3.20
2023-01-03T04:06:15.470Z,4.38
2023-01-03T04:10:20.454Z,4.47
2023-01-03T04:14:22.833Z,4.30
2023-01-03T04:18:25.633Z,4.38
2023-01-03T04:22:27.664Z,4.15
2023-01-03T04:26:29.870Z,4.70
2023-01-03T04:30:32.006Z,3.50
2023-01-03T04:34:33.869Z,4.15
2023-01-03T04:38:35.718Z,3.28
2023-01-03T04:42:56.155Z,3.30
2023-01-03T04:46:58.293Z,2.40
2023-01-03T04:51:00.452Z,2.47
2023-01-03T04:55:02.361Z,2.90
2023-01-03T04:59:05.320Z,2.80
2023-01-03T05:03:07.220Z,2.45
2023-01-03T05:07:09.016Z,2.97
2023-01-03T05:11:10.851Z,3.42
2023-01-03T05:15:12.652Z,3.33
2023-01-03T05:19:14.771Z,4.00
2023-01-03T05:23:36.966Z,3.60
2023-01-03T05:27:39.103Z,2.60
2023-01-03T05:31:41.414Z,2.60
2023-01-03T05:35:47.747Z,3.15
2023-01-03T05:39:49.515Z,2.97
2023-01-03T05:43:51.419Z,2.40
2023-01-03T05:47:53.371Z,2.40
2023-01-03T05:51:55.261Z,2.15
2023-01-03T05:55:57.389Z,2.03
2023-01-03T05:59:59.099Z,2.55
2023-01-03T06:04:00.935Z,3.97
2023-01-03T06:08:02.730Z,3.20
2023-01-03T06:12:04.619Z,3.00
2023-01-03T06:16:33.240Z,3.17
2023-01-03T06:20:34.965Z,2.60
2023-01-03T06:24:36.738Z,2.70
2023-01-03T06:28:38.768Z,2.20
2023-01-03T06:32:40.561Z,2.40
2023-01-03T06:36:42.630Z,2.30
2023-01-03T06:40:48.636Z,2.15
2023-01-03T06:45:08.594Z,1.98
2023-01-03T06:49:34.050Z,1.60
2023-01-03T06:53:40.480Z,1.95
2023-01-03T06:57:42.202Z,1.90
2023-01-03T07:01:45.484Z,2.30
2023-01-03T07:05:47.297Z,1.92
2023-01-03T07:09:48.985Z,2.53
2023-01-03T07:14:00.720Z,1.90
2023-01-03T07:18:02.545Z,1.70
2023-01-03T07:22:04.313Z,1.73
2023-01-03T07:26:06.216Z,1.92
2023-01-03T07:30:08.511Z,2.00
2023-01-03T07:34:11.562Z,2.03
2023-01-03T07:38:14.926Z,1.80
2023-01-03T07:42:48.884Z,1.90
2023-01-03T07:46:50.909Z,1.65
2023-01-03T07:50:57.448Z,1.58
2023-01-03T07:54:59.159Z,1.67
2023-01-03T07:59:00.933Z,1.40
2023-01-03T08:03:02.767Z,1.30
2023-01-03T08:07:04.558Z,1.27
2023-01-03T08:11:25.834Z,1.15
2023-01-03T08:15:27.586Z,1.10
2023-01-03T08:19:29.365Z,1.40
2023-01-03T08:23:31.170Z,1.30
2023-01-03T08:27:33.097Z,1.80
2023-01-03T08:31:40.663Z,1.60
2023-01-03T08:35:49.284Z,1.40
2023-01-03T08:39:56.308Z,1.60
2023-01-03T08:44:00.455Z,1.48
2023-01-03T08:48:03.901Z,1.30
2023-01-03T08:52:05.841Z,1.50
2023-01-03T08:56:08.039Z,1.70
2023-01-03T09:00:10.495Z,1.33
2023-01-03T09:04:12.380Z,1.90
2023-01-03T09:08:14.173Z,1.67
2023-01-03T09:12:15.937Z,1.77
2023-01-03T09:16:17.733Z,1.70
2023-01-03T09:20:19.595Z,2.20
2023-01-03T09:24:21.305Z,1.60
2023-01-03T09:28:23.460Z,1.30
2023-01-03T09:32:25.189Z,1.55
2023-01-03T09:36:26.930Z,9.10
2023-01-03T09:40:30.730Z,9.93
2023-01-03T09:44:33.061Z,7.28
2023-01-03T09:48:37.553Z,5.68
2023-01-03T09:53:02.485Z,5.45
2023-01-03T09:57:33.833Z,6.05
2023-01-03T10:02:13.669Z,9.38
2023-01-03T10:06:46.465Z,6.93
2023-01-03T10:11:13.004Z,8.23
2023-01-03T10:16:00.101Z,7.75
2023-01-03T10:20:36.060Z,5.47
2023-01-03T10:25:02.577Z,6.72
2023-01-03T10:29:04.365Z,7.00
2023-01-03T10:33:19.093Z,6.05
2023-01-03T10:37:20.977Z,6.90
2023-01-03T10:41:45.141Z,9.02
2023-01-03T10:46:32.570Z,7.07
2023-01-03T10:50:38.520Z,7.00
2023-01-03T10:54:43.715Z,4.25
2023-01-03T10:58:45.772Z,3.90
2023-01-03T11:02:48.412Z,3.80
2023-01-03T11:07:04.096Z,4.40
2023-01-03T11:11:35.515Z,4.47
2023-01-03T11:15:39.538Z,3.90
2023-01-03T11:19:41.474Z,2.85
2023-01-03T11:24:01.887Z,5.20
2023-01-03T11:28:22.255Z,5.00
2023-01-03T11:32:42.696Z,4.55
2023-01-03T11:36:49.647Z,4.43
2023-01-03T11:41:14.377Z,4.07
2023-01-03T11:45:31.602Z,4.20
2023-01-03T11:49:53.873Z,3.70
2023-01-03T11:54:03.192Z,3.08
2023-01-03T11:58:17.110Z,2.85
2023-01-03T12:02:32.052Z,2.92
2023-01-03T12:06:49.118Z,2.60
2023-01-03T12:11:10.984Z,3.20
2023-01-03T12:15:31.571Z,2.55
2023-01-03T12:19:44.696Z,2.60
2023-01-03T12:24:01.136Z,2.35
2023-01-03T12:28:19.006Z,2.22
2023-01-03T12:32:28.407Z,2.75
2023-01-03T12:36:43.079Z,2.50
2023-01-03T12:41:00.689Z,2.85
2023-01-03T12:45:11.729Z,2.60
2023-01-03T12:49:38.041Z,3.50
2023-01-03T12:53:49.228Z,2.33
2023-01-03T12:58:08.846Z,2.80
2023-01-03T13:02:31.893Z,1.95
2023-01-03T13:06:39.391Z,1.85
2023-01-03T13:10:47.336Z,1.77
2023-01-03T13:14:58.560Z,2.03
2023-01-03T13:19:21.804Z,1.65
2023-01-03T13:23:32.728Z,2.00
2023-01-03T13:27:37.306Z,2.60
2023-01-03T13:31:40.663Z,2.20
2023-01-03T13:35:42.413Z,2.60
2023-01-03T13:39:50.305Z,2.30
2023-01-03T13:43:54.089Z,1.90
2023-01-03T13:47:56.765Z,2.40
2023-01-03T13:51:59.376Z,1.80
2023-01-03T13:56:21.709Z,2.75
2023-01-03T14:00:24.275Z,4.20
2023-01-03T14:05:11.164Z,3.50
2023-01-03T14:09:50.261Z,2.92
2023-01-03T14:13:53.712Z,3.63
2023-01-03T14:17:59.782Z,2.72
2023-01-03T14:22:27.325Z,2.70
2023-01-03T14:26:28.115Z,2.03
2023-01-03T14:30:32.469Z,3.10
2023-01-03T14:34:37.126Z,2.10
2023-01-03T14:38:39.808Z,2.22
2023-01-03T14:42:45.775Z,2.47
2023-01-03T14:46:57.099Z,2.10
2023-01-03T14:51:03.590Z,1.98
2023-01-03T14:55:12.892Z,2.10
2023-01-03T14:59:21.630Z,2.13
2023-01-03T15:03:24.264Z,2.20
2023-01-03T15:07:38.889Z,2.67
2023-01-03T15:11:56.899Z,2.50
2023-01-03T15:16:01.625Z,2.72
2023-01-03T15:20:08.518Z,7.78
2023-01-03T15:24:28.871Z,7.47
2023-01-03T15:28:36.662Z,4.78
2023-01-03T15:33:04.992Z,3.67
2023-01-03T15:37:22.164Z,2.95
2023-01-03T15:41:45.514Z,3.05
2023-01-03T15:46:10.601Z,2.75
2023-01-03T15:50:21.429Z,2.42
2023-01-03T15:54:23.548Z,2.42
2023-01-03T15:58:27.880Z,2.33
2023-01-03T16:02:30.921Z,2.55
2023-01-03T16:06:32.767Z,2.30
2023-01-03T16:10:34.572Z,1.92
2023-01-03T16:14:40.025Z,1.73
2023-01-03T16:18:48.946Z,2.33
2023-01-03T16:23:00.508Z,1.98
2023-01-03T16:27:12.950Z,1.80
2023-01-03T16:31:25.260Z,1.98
2023-01-03T16:35:26.969Z,1.90
2023-01-03T16:39:28.756Z,2.15
2023-01-03T16:43:30.484Z,2.90
2023-01-03T16:47:35.023Z,2.20
2023-01-03T16:51:39.555Z,2.90
2023-01-03T16:55:45.736Z,2.45
2023-01-03T16:59:48.761Z,2.70
2023-01-03T17:03:50.927Z,2.05
2023-01-03T17:07:59.998Z,2.40
2023-01-03T17:12:04.069Z,2.38
2023-01-03T17:16:12.867Z,3.05
2023-01-03T17:20:19.754Z,2.92
2023-01-03T17:24:24.538Z,2.85
2023-01-03T17:28:26.438Z,3.08
2023-01-03T17:32:28.553Z,2.53
2023-01-03T17:36:32.723Z,2.60
2023-01-03T17:40:34.748Z,2.80
2023-01-03T17:44:36.692Z,2.78
2023-01-03T17:48:57.136Z,2.90
2023-01-03T17:53:01.539Z,2.83
2023-01-03T17:57:04.216Z,1.90
2023-01-03T18:01:08.515Z,2.10
2023-01-03T18:05:22.968Z,1.92
2023-01-03T18:09:30.696Z,2.60
2023-01-03T18:13:36.030Z,2.75
2023-01-03T18:17:37.883Z,3.13
2023-01-03T18:21:40.298Z,3.33
2023-01-03T18:25:42.187Z,3.30
2023-01-03T18:29:43.976Z,4.20
2023-01-03T18:33:45.977Z,3.90
2023-01-03T18:37:50.988Z,5.18
2023-01-03T18:41:53.166Z,5.35
2023-01-03T18:45:54.940Z,5.32
2023-01-03T18:49:56.687Z,6.22
2023-01-03T18:53:59.487Z,4.88
2023-01-03T18:58:08.966Z,4.28
2023-01-03T19:02:14.996Z,3.58
2023-01-03T19:06:23.490Z,4.75
2023-01-03T19:10:26.614Z,3.63
2023-01-03T19:14:28.416Z,2.92
2023-01-03T19:18:30.162Z,2.50
2023-01-03T19:22:33.908Z,3.17
2023-01-03T19:26:41.233Z,2.85
2023-01-03T19:30:46.455Z,3.40
2023-01-03T19:34:49.117Z,2.80
2023-01-03T19:38:50.950Z,2.20
2023-01-03T19:42:55.412Z,2.30
2023-01-03T19:46:57.275Z,2.28
2023-01-03T19:50:59.101Z,2.75
2023-01-03T19:55:00.828Z,2.65
2023-01-03T19:59:03.567Z,7.28
2023-01-03T20:03:11.583Z,6.70
2023-01-03T20:07:14.242Z,4.57
2023-01-03T20:11:19.554Z,5.15
2023-01-03T20:15:28.117Z,3.83
2023-01-03T20:19:30.670Z,3.95
2023-01-03T20:23:36.306Z,4.35
2023-01-03T20:27:44.358Z,5.13
2023-01-03T20:31:46.569Z,3.45
2023-01-03T20:36:11.306Z,3.30
2023-01-03T20:40:16.283Z,4.30
2023-01-03T20:44:18.052Z,3.55
2023-01-03T20:48:25.419Z,3.17
2023-01-03T20:52:28.146Z,2.88
2023-01-03T20:56:32.852Z,2.90
2023-01-03T21:00:35.323Z,3.83
2023-01-03T21:04:37.896Z,4.90
2023-01-03T21:08:54.966Z,4.60
2023-01-03T21:12:57.087Z,4.72
2023-01-03T21:16:58.900Z,4.03
2023-01-03T21:21:06.066Z,3.78
2023-01-03T21:25:17.879Z,3.00
2023-01-03T21:29:19.713Z,2.83
2023-01-03T21:33:22.225Z,2.80
2023-01-03T21:37:23.965Z,2.85
2023-01-03T21:41:30.080Z,2.95
2023-01-03T21:45:44.908Z,2.57
2023-01-03T21:49:46.654Z,3.95
2023-01-03T21:53:48.601Z,3.20
2023-01-03T21:57:50.850Z,3.10
2023-01-03T22:02:11.290Z,2.47
2023-01-03T22:06:13.944Z,3.20
2023-01-03T22:10:23.619Z,2.78
2023-01-03T22:14:25.361Z,3.25
2023-01-03T22:18:28.543Z,3.45
2023-01-03T22:22:30.255Z,3.58
2023-01-03T22:26:34.489Z,3.53
2023-01-03T22:30:36.409Z,3.47
2023-01-03T22:34:39.019Z,3.20
2023-01-03T22:38:41.838Z,3.08
2023-01-03T22:42:43.750Z,2.78
2023-01-03T22:46:45.509Z,3.50
2023-01-03T22:50:47.209Z,3.22
2023-01-03T22:54:49.173Z,2.53
2023-01-03T22:58:50.913Z,3.33
2023-01-03T23:02:52.715Z,3.17
2023-01-03T23:06:54.848Z,2.80
2023-01-03T23:11:16.581Z,3.58
2023-01-03T23:15:18.328Z,3.08
2023-01-03T23:19:23.877Z,2.97
2023-01-03T23:23:25.698Z,2.63
2023-01-03T23:27:27.519Z,3.42
2023-01-03T23:31:29.504Z,2.58
2023-01-03T23:35:33.581Z,2.67
2023-01-03T23:39:35.318Z,3.25
2023-01-03T23:43:37.960Z,2.78
2023-01-03T23:47:39.776Z,3.10
2023-01-03T23:51:41.875Z,2.45
2023-01-03T23:55:43.766Z,2.88
2023-01-03T23:59:45.471Z,2.40
